createdAt,value
2022-10-19T00:00:16.967Z,5.80
2022-10-19T00:02:43.740Z,5.80
2022-10-19T00:05:10.373Z,5.70
2022-10-19T00:07:37.082Z,5.70
2022-10-19T00:10:04.445Z,6.10
2022-10-19T00:12:31.105Z,5.50
2022-10-19T00:14:57.929Z,5.20
2022-10-19T00:17:24.558Z,5.60
2022-10-19T00:19:51.180Z,6.00
2022-10-19T00:22:17.855Z,5.50
2022-10-19T00:24:44.538Z,5.50
2022-10-19T00:27:11.133Z,6.10
2022-10-19T00:29:38.284Z,5.90
2022-10-19T00:32:05.054Z,5.40
2022-10-19T00:34:31.672Z,5.60
2022-10-19T00:36:58.330Z,5.90
2022-10-19T00:39:24.980Z,5.80
2022-10-19T00:41:51.698Z,5.60
2022-10-19T00:44:18.335Z,5.60
2022-10-19T00:46:46.320Z,5.40
2022-10-19T00:49:14.406Z,5.60
2022-10-19T00:51:42.440Z,5.80
2022-10-19T00:54:09.240Z,5.80
2022-10-19T00:56:36.028Z,5.70
2022-10-19T00:59:05.780Z,5.60
2022-10-19T01:01:33.007Z,6.00
2022-10-19T01:04:00.101Z,5.90
2022-10-19T01:06:26.856Z,5.70
2022-10-19T01:08:53.516Z,5.90
2022-10-19T01:11:42.053Z,6.10
2022-10-19T01:14:16.669Z,5.90
2022-10-19T01:16:54.327Z,5.50
2022-10-19T01:19:52.002Z,5.60
2022-10-19T01:22:35.300Z,5.90
2022-10-19T01:25:20.772Z,5.80
2022-10-19T01:27:53.762Z,6.00
2022-10-19T01:30:27.060Z,5.70
2022-10-19T01:33:23.611Z,5.60
2022-10-19T01:35:52.480Z,6.10
2022-10-19T01:38:41.952Z,6.50
2022-10-19T01:41:26.516Z,6.40
2022-10-19T01:44:02.205Z,6.30
2022-10-19T01:46:31.824Z,6.20
2022-10-19T01:49:19.285Z,6.30
2022-10-19T01:51:48.208Z,6.30
2022-10-19T01:54:15.734Z,6.60
2022-10-19T01:56:43.274Z,7.10
2022-10-19T01:59:11.093Z,7.10
2022-10-19T02:01:39.828Z,8.00
2022-10-19T02:04:06.453Z,7.80
2022-10-19T02:06:33.225Z,8.60
2022-10-19T02:09:00.137Z,8.10
2022-10-19T02:11:26.868Z,7.50
2022-10-19T02:13:56.904Z,6.90
2022-10-19T02:16:34.655Z,7.20
2022-10-19T02:19:01.353Z,6.80
2022-10-19T02:21:28.035Z,7.20
2022-10-19T02:23:54.718Z,7.00
2022-10-19T02:26:21.515Z,7.30
2022-10-19T02:28:48.214Z,6.70
2022-10-19T02:31:14.845Z,7.20
2022-10-19T02:33:41.529Z,7.20
2022-10-19T02:36:08.145Z,6.40
2022-10-19T02:38:34.963Z,7.50
2022-10-19T02:41:08.917Z,7.40
2022-10-19T02:43:37.433Z,7.20
2022-10-19T02:46:06.851Z,7.10
2022-10-19T02:48:33.876Z,6.70
2022-10-19T02:51:00.547Z,7.50
2022-10-19T02:53:27.229Z,8.00
2022-10-19T02:55:53.958Z,8.10
2022-10-19T02:58:20.767Z,8.30
2022-10-19T03:00:47.466Z,8.20
2022-10-19T03:03:14.187Z,8.80
2022-10-19T03:05:40.833Z,8.50
2022-10-19T03:08:07.497Z,8.70
2022-10-19T03:10:34.183Z,9.30
2022-10-19T03:13:00.885Z,9.30
2022-10-19T03:15:29.745Z,8.10
2022-10-19T03:17:56.732Z,8.40
2022-10-19T03:20:23.548Z,8.30
2022-10-19T03:22:50.525Z,8.40
2022-10-19T03:25:17.212Z,8.30
2022-10-19T03:27:44.055Z,8.00
2022-10-19T03:30:10.962Z,7.90
2022-10-19T03:32:37.576Z,7.80
2022-10-19T03:35:04.560Z,8.20
2022-10-19T03:37:31.371Z,8.70
2022-10-19T03:39:58.227Z,8.10
2022-10-19T03:42:24.856Z,7.90
2022-10-19T03:44:51.632Z,8.10
2022-10-19T03:47:18.287Z,8.10
2022-10-19T03:49:45.037Z,8.10
2022-10-19T03:52:11.678Z,8.20
2022-10-19T03:54:38.411Z,8.30
2022-10-19T03:57:05.273Z,8.10
2022-10-19T03:59:32.088Z,7.70
2022-10-19T04:01:58.724Z,8.20
2022-10-19T04:04:25.408Z,8.60
2022-10-19T04:06:53.876Z,7.70
2022-10-19T04:09:21.488Z,8.60
2022-10-19T04:11:48.712Z,8.70
2022-10-19T04:14:26.739Z,8.70
2022-10-19T04:17:00.966Z,9.20
2022-10-19T04:19:27.641Z,8.80
2022-10-19T04:21:54.273Z,8.70
2022-10-19T04:24:20.987Z,9.10
2022-10-19T04:26:49.752Z,8.50
2022-10-19T04:29:16.866Z,8.60
2022-10-19T04:31:43.565Z,9.20
2022-10-19T04:34:10.240Z,8.50
2022-10-19T04:36:37.176Z,8.90
2022-10-19T04:39:04.616Z,9.30
2022-10-19T04:41:31.360Z,9.20
2022-10-19T04:43:59.175Z,9.30
2022-10-19T04:46:26.380Z,9.20
2022-10-19T04:48:53.101Z,9.20
2022-10-19T04:51:20.045Z,9.20
2022-10-19T04:53:46.766Z,9.40
2022-10-19T04:56:23.696Z,9.10
2022-10-19T04:58:51.245Z,9.20
2022-10-19T05:01:19.933Z,9.50
2022-10-19T05:03:47.470Z,9.40
2022-10-19T05:06:14.680Z,9.30
2022-10-19T05:08:41.453Z,9.70
2022-10-19T05:11:10.479Z,9.60
2022-10-19T05:13:37.132Z,9.50
2022-10-19T05:16:05.009Z,9.50
2022-10-19T05:18:31.811Z,9.40
2022-10-19T05:21:06.517Z,10.30
2022-10-19T05:26:09.692Z,11.60
2022-10-19T05:28:36.659Z,11.20
2022-10-19T05:31:14.457Z,11.50
2022-10-19T05:33:41.420Z,11.60
2022-10-19T05:36:26.963Z,11.50
2022-10-19T05:38:55.291Z,12.60
2022-10-19T05:41:22.085Z,12.60
2022-10-19T05:43:52.769Z,13.40
2022-10-19T05:46:19.427Z,12.60
2022-10-19T05:48:46.466Z,11.60
2022-10-19T05:51:14.630Z,11.90
2022-10-19T05:53:41.520Z,11.30
2022-10-19T05:56:09.273Z,11.60
2022-10-19T05:58:36.081Z,12.30
2022-10-19T06:01:02.812Z,12.60
2022-10-19T06:03:29.496Z,13.90
2022-10-19T06:05:56.215Z,14.90
2022-10-19T06:08:23.225Z,14.50
2022-10-19T06:10:50.244Z,13.20
2022-10-19T06:13:18.109Z,13.40
2022-10-19T06:15:45.611Z,13.50
2022-10-19T06:18:12.536Z,13.40
2022-10-19T06:20:40.211Z,15.70
2022-10-19T06:23:07.215Z,15.70
2022-10-19T06:25:34.364Z,15.40
2022-10-19T06:28:01.208Z,13.90
2022-10-19T06:30:28.224Z,14.30
2022-10-19T06:32:55.160Z,13.00
2022-10-19T06:35:22.000Z,12.30
2022-10-19T06:37:48.724Z,11.60
2022-10-19T06:40:15.518Z,10.90
2022-10-19T06:42:42.395Z,10.00
2022-10-19T06:45:09.882Z,9.90
2022-10-19T06:47:37.186Z,9.80
2022-10-19T06:50:05.367Z,8.80
2022-10-19T06:52:33.232Z,8.00
2022-10-19T06:55:00.129Z,7.80
2022-10-19T06:57:27.028Z,8.30
2022-10-19T06:59:53.820Z,8.30
2022-10-19T07:02:20.973Z,7.90
2022-10-19T07:04:47.633Z,7.60
2022-10-19T07:07:14.245Z,7.80
2022-10-19T07:09:40.935Z,7.00
2022-10-19T07:12:10.748Z,6.90
2022-10-19T07:14:39.588Z,7.30
2022-10-19T07:17:07.115Z,6.10
2022-10-19T07:19:34.057Z,6.50
2022-10-19T07:22:00.740Z,5.90
2022-10-19T07:24:27.486Z,5.00
2022-10-19T07:26:54.283Z,4.80
2022-10-19T07:29:21.013Z,5.30
2022-10-19T07:31:47.876Z,5.70
2022-10-19T07:34:14.642Z,11.10
2022-10-19T07:36:45.073Z,6.20
2022-10-19T07:39:12.590Z,4.60
2022-10-19T07:41:39.389Z,3.20
2022-10-19T07:44:06.303Z,2.80
2022-10-19T07:46:37.267Z,3.00
2022-10-19T07:49:05.804Z,2.50
2022-10-19T07:51:32.485Z,2.60
2022-10-19T07:53:59.264Z,4.20
2022-10-19T07:56:26.670Z,5.10
2022-10-19T07:58:54.524Z,2.70
2022-10-19T08:01:22.872Z,3.40
2022-10-19T08:06:37.521Z,2.70
2022-10-19T08:09:05.197Z,2.40
2022-10-19T08:11:33.392Z,2.10
2022-10-19T08:14:00.230Z,2.30
2022-10-19T08:16:32.794Z,3.10
2022-10-19T08:19:01.758Z,2.50
2022-10-19T08:21:29.119Z,2.10
2022-10-19T08:23:55.832Z,2.20
2022-10-19T08:26:22.537Z,2.10
2022-10-19T08:28:49.352Z,1.80
2022-10-19T08:31:18.624Z,2.20
2022-10-19T08:33:45.462Z,1.40
2022-10-19T08:36:12.967Z,1.50
2022-10-19T08:38:39.898Z,1.90
2022-10-19T08:41:26.327Z,2.20
2022-10-19T08:44:30.806Z,2.40
2022-10-19T08:47:08.704Z,2.10
2022-10-19T08:49:35.438Z,1.80
2022-10-19T08:52:05.845Z,1.50
2022-10-19T08:54:40.846Z,1.80
2022-10-19T08:57:31.367Z,1.30
2022-10-19T09:00:28.850Z,1.70
2022-10-19T09:03:23.072Z,1.40
2022-10-19T09:06:20.084Z,1.70
2022-10-19T09:08:48.029Z,1.70
2022-10-19T09:11:14.710Z,1.80
2022-10-19T09:14:04.200Z,2.20
2022-10-19T09:16:32.207Z,2.80
2022-10-19T09:18:59.003Z,2.60
2022-10-19T09:21:48.010Z,1.80
2022-10-19T09:24:28.832Z,1.60
2022-10-19T09:26:57.448Z,2.10
2022-10-19T09:29:30.257Z,2.00
2022-10-19T09:34:32.959Z,2.60
2022-10-19T09:37:00.339Z,2.20
2022-10-19T09:39:29.694Z,2.50
2022-10-19T09:42:16.004Z,2.40
2022-10-19T09:44:42.922Z,2.30
2022-10-19T09:47:13.742Z,2.00
2022-10-19T09:49:45.102Z,2.20
2022-10-19T09:52:33.918Z,1.90
2022-10-19T09:55:03.794Z,1.60
2022-10-19T09:57:30.946Z,2.60
2022-10-19T09:59:58.065Z,1.70
2022-10-19T10:02:33.290Z,1.60
2022-10-19T10:05:09.350Z,1.40
2022-10-19T10:07:38.473Z,2.40
2022-10-19T10:10:19.256Z,2.20
2022-10-19T10:12:47.870Z,2.90
2022-10-19T10:15:20.225Z,2.40
2022-10-19T10:17:47.341Z,2.40
2022-10-19T10:20:18.970Z,2.30
2022-10-19T10:22:53.172Z,2.50
2022-10-19T10:25:19.896Z,2.30
2022-10-19T10:28:20.326Z,1.90
2022-10-19T10:30:47.134Z,1.80
2022-10-19T10:33:27.022Z,2.10
2022-10-19T10:36:08.191Z,2.40
2022-10-19T10:38:37.104Z,1.80
2022-10-19T10:41:07.874Z,1.80
2022-10-19T10:43:36.227Z,1.70
2022-10-19T10:46:07.863Z,1.50
2022-10-19T10:48:39.936Z,1.60
2022-10-19T10:51:40.309Z,2.60
2022-10-19T10:54:20.423Z,2.50
2022-10-19T10:57:14.091Z,2.20
2022-10-19T11:02:28.300Z,2.30
2022-10-19T11:05:00.614Z,2.20
2022-10-19T11:07:28.005Z,2.30
2022-10-19T11:09:57.865Z,2.50
2022-10-19T11:13:03.080Z,2.50
2022-10-19T11:16:21.227Z,5.40
2022-10-19T11:18:50.462Z,4.60
2022-10-19T11:21:41.651Z,3.60
2022-10-19T11:24:19.110Z,2.90
2022-10-19T11:27:24.744Z,2.40
2022-10-19T11:30:11.165Z,5.30
2022-10-19T11:32:46.079Z,2.20
2022-10-19T11:35:37.328Z,3.10
2022-10-19T11:38:27.438Z,1.90
2022-10-19T11:41:28.707Z,3.10
2022-10-19T11:44:13.231Z,2.40
2022-10-19T11:46:59.130Z,2.70
2022-10-19T11:49:51.468Z,2.70
2022-10-19T11:52:35.892Z,2.30
2022-10-19T11:55:21.937Z,1.60
2022-10-19T11:57:53.252Z,2.00
2022-10-19T12:00:38.275Z,1.60
2022-10-19T12:03:25.791Z,1.40
2022-10-19T12:06:18.362Z,1.70
2022-10-19T12:08:56.368Z,1.50
2022-10-19T12:11:38.549Z,1.30
2022-10-19T12:15:54.264Z,3.10
2022-10-19T12:18:42.185Z,2.20
2022-10-19T12:21:30.567Z,2.20
2022-10-19T12:23:57.613Z,3.00
2022-10-19T12:26:24.293Z,3.30
2022-10-19T12:28:55.624Z,3.50
2022-10-19T12:31:23.757Z,2.10
2022-10-19T12:33:56.365Z,2.70
2022-10-19T12:36:41.267Z,3.30
2022-10-19T12:39:17.799Z,2.90
2022-10-19T12:42:03.546Z,2.40
2022-10-19T12:44:43.936Z,1.50
2022-10-19T12:47:12.319Z,2.30
2022-10-19T12:49:44.485Z,4.70
2022-10-19T12:52:11.308Z,3.50
2022-10-19T12:54:49.577Z,3.30
2022-10-19T12:57:23.751Z,3.10
2022-10-19T13:00:18.869Z,2.50
2022-10-19T13:02:45.505Z,3.00
2022-10-19T13:05:22.580Z,2.00
2022-10-19T13:10:24.020Z,2.10
2022-10-19T13:12:50.798Z,2.00
2022-10-19T13:15:35.937Z,2.50
2022-10-19T13:18:03.036Z,3.40
2022-10-19T13:20:29.822Z,3.40
2022-10-19T13:22:59.732Z,2.70
2022-10-19T13:25:33.302Z,2.50
2022-10-19T13:28:23.033Z,1.70
2022-10-19T13:30:49.824Z,2.00
2022-10-19T13:33:24.712Z,1.60
2022-10-19T13:36:02.994Z,2.50
2022-10-19T13:38:48.718Z,3.30
2022-10-19T13:41:24.097Z,2.00
2022-10-19T13:44:09.216Z,1.80
2022-10-19T13:46:40.072Z,2.00
2022-10-19T13:49:32.503Z,1.90
2022-10-19T13:52:05.700Z,2.60
2022-10-19T13:54:51.302Z,2.30
2022-10-19T13:57:37.513Z,2.50
2022-10-19T14:00:14.327Z,2.30
2022-10-19T14:03:06.648Z,2.20
2022-10-19T14:05:39.019Z,2.10
2022-10-19T14:08:24.450Z,2.30
2022-10-19T14:11:03.657Z,2.40
2022-10-19T14:13:31.388Z,2.20
2022-10-19T14:15:58.944Z,2.20
2022-10-19T14:18:35.886Z,2.40
2022-10-19T14:21:04.939Z,2.00
2022-10-19T14:23:41.933Z,2.00
2022-10-19T14:26:16.999Z,2.20
2022-10-19T14:28:43.913Z,2.60
2022-10-19T14:31:17.192Z,3.10
2022-10-19T14:33:46.990Z,3.30
2022-10-19T14:36:21.165Z,2.40
2022-10-19T14:38:49.332Z,2.90
2022-10-19T14:41:37.381Z,2.70
2022-10-19T14:44:37.681Z,2.30
2022-10-19T14:47:17.228Z,2.50
2022-10-19T14:49:43.965Z,2.40
2022-10-19T14:52:11.241Z,2.40
2022-10-19T14:54:41.266Z,2.70
2022-10-19T14:57:15.877Z,2.90
2022-10-19T14:59:50.656Z,4.80
2022-10-19T15:02:21.060Z,5.20
2022-10-19T15:04:47.861Z,5.20
2022-10-19T15:07:20.548Z,5.00
2022-10-19T15:10:00.542Z,5.00
2022-10-19T15:12:29.819Z,8.60
2022-10-19T15:14:56.716Z,7.40
2022-10-19T15:17:25.864Z,9.60
2022-10-19T15:19:53.661Z,9.70
2022-10-19T15:22:29.349Z,9.90
2022-10-19T15:25:02.191Z,9.80
2022-10-19T15:27:40.208Z,9.10
2022-10-19T15:30:07.284Z,7.70
2022-10-19T15:32:36.387Z,6.40
2022-10-19T15:35:21.544Z,5.80
2022-10-19T15:37:48.679Z,5.40
2022-10-19T15:40:29.104Z,5.70
2022-10-19T15:42:55.754Z,5.90
2022-10-19T15:45:32.043Z,7.40
2022-10-19T15:48:10.846Z,9.50
2022-10-19T15:50:45.245Z,9.70
2022-10-19T15:53:12.130Z,11.20
2022-10-19T15:55:38.842Z,12.50
2022-10-19T15:58:05.598Z,15.30
2022-10-19T16:00:32.584Z,21.40
2022-10-19T16:02:59.250Z,26.30
2022-10-19T16:05:25.974Z,23.30
2022-10-19T16:07:52.669Z,20.10
2022-10-19T16:10:21.308Z,22.30
2022-10-19T16:12:48.018Z,20.10
2022-10-19T16:15:17.477Z,17.30
2022-10-19T16:17:45.044Z,13.70
2022-10-19T16:20:11.689Z,10.20
2022-10-19T16:22:38.358Z,7.50
2022-10-19T16:25:05.726Z,5.80
2022-10-19T16:27:32.662Z,5.40
2022-10-19T16:29:59.520Z,5.50
2022-10-19T16:32:26.213Z,6.40
2022-10-19T16:34:52.953Z,8.90
2022-10-19T16:37:19.571Z,7.90
2022-10-19T16:39:46.492Z,7.50
2022-10-19T16:42:13.423Z,6.10
2022-10-19T16:44:40.145Z,8.80
2022-10-19T16:47:06.799Z,6.30
2022-10-19T16:49:33.576Z,8.60
2022-10-19T16:52:01.713Z,7.70
2022-10-19T16:54:32.698Z,5.90
2022-10-19T16:56:59.384Z,8.50
2022-10-19T16:59:26.035Z,3.70
2022-10-19T17:01:53.855Z,3.30
2022-10-19T17:04:20.717Z,2.80
2022-10-19T17:06:47.534Z,2.40
2022-10-19T17:12:01.136Z,2.10
2022-10-19T17:14:27.947Z,2.80
2022-10-19T17:16:54.692Z,2.20
2022-10-19T17:19:21.602Z,4.10
2022-10-19T17:21:49.457Z,2.60
2022-10-19T17:24:21.656Z,2.00
2022-10-19T17:26:50.187Z,2.30
2022-10-19T17:29:16.929Z,2.40
2022-10-19T17:31:43.649Z,2.30
2022-10-19T17:34:10.886Z,3.00
2022-10-19T17:39:17.780Z,2.70
2022-10-19T17:41:48.347Z,3.50
2022-10-19T17:44:15.430Z,2.40
2022-10-19T17:46:42.414Z,2.10
2022-10-19T17:49:09.838Z,3.00
2022-10-19T17:51:36.945Z,2.20
2022-10-19T17:54:08.754Z,2.20
2022-10-19T17:56:36.236Z,2.30
2022-10-19T17:59:03.235Z,3.30
2022-10-19T18:01:30.218Z,2.10
2022-10-19T18:03:57.131Z,2.20
2022-10-19T18:06:25.648Z,2.10
2022-10-19T18:08:53.946Z,1.90
2022-10-19T18:11:22.454Z,3.10
2022-10-19T18:13:52.054Z,3.90
2022-10-19T18:16:24.441Z,3.20
2022-10-19T18:18:51.984Z,2.40
2022-10-19T18:21:20.488Z,2.80
2022-10-19T18:23:47.544Z,2.40
2022-10-19T18:26:16.276Z,2.40
2022-10-19T18:28:43.163Z,2.10
2022-10-19T18:31:12.358Z,1.50
2022-10-19T18:33:39.860Z,1.40
2022-10-19T18:36:07.613Z,1.20
2022-10-19T18:38:34.337Z,1.00
2022-10-19T18:43:50.000Z,1.20
2022-10-19T18:46:17.941Z,1.20
2022-10-19T18:48:44.796Z,1.30
2022-10-19T18:51:11.492Z,1.40
2022-10-19T18:53:38.433Z,1.20
2022-10-19T18:56:07.115Z,1.10
2022-10-19T18:58:34.037Z,1.00
2022-10-19T19:01:08.468Z,1.00
2022-10-19T19:03:35.394Z,1.10
2022-10-19T19:06:03.154Z,1.00
2022-10-19T19:08:30.091Z,0.90
2022-10-19T19:10:56.994Z,1.00
2022-10-19T19:13:23.858Z,1.10
2022-10-19T19:15:59.572Z,1.10
2022-10-19T19:18:26.427Z,1.10
2022-10-19T19:20:53.066Z,1.00
2022-10-19T19:23:20.057Z,1.10
2022-10-19T19:25:46.923Z,2.50
2022-10-19T19:28:13.772Z,1.90
2022-10-19T19:30:44.841Z,1.90
2022-10-19T19:33:12.950Z,2.10
2022-10-19T19:35:46.495Z,1.60
2022-10-19T19:40:43.548Z,1.50
2022-10-19T19:43:10.511Z,1.40
2022-10-19T19:45:37.396Z,1.30
2022-10-19T19:48:04.470Z,1.20
2022-10-19T19:50:31.689Z,1.20
2022-10-19T19:52:58.702Z,1.10
2022-10-19T19:55:26.064Z,1.20
2022-10-19T19:57:54.388Z,1.60
2022-10-19T20:00:22.056Z,1.60
2022-10-19T20:02:55.638Z,1.40
2022-10-19T20:07:49.380Z,1.40
2022-10-19T20:10:16.265Z,1.10
2022-10-19T20:12:43.736Z,1.10
2022-10-19T20:15:11.105Z,1.00
2022-10-19T20:17:38.370Z,1.30
2022-10-19T20:20:05.672Z,1.10
2022-10-19T20:22:32.330Z,1.00
2022-10-19T20:24:59.093Z,1.20
2022-10-19T20:27:25.981Z,1.20
2022-10-19T20:29:58.608Z,1.20
2022-10-19T20:32:26.141Z,1.50
2022-10-19T20:34:52.911Z,1.50
2022-10-19T20:37:20.277Z,1.60
2022-10-19T20:39:47.656Z,1.50
2022-10-19T20:42:14.949Z,1.30
2022-10-19T20:44:41.592Z,1.90
2022-10-19T20:47:08.380Z,1.20
2022-10-19T20:49:35.089Z,1.40
2022-10-19T20:52:01.717Z,1.50
2022-10-19T20:54:28.433Z,1.60
2022-10-19T20:56:55.076Z,1.90
2022-10-19T20:59:22.734Z,1.70
2022-10-19T21:01:54.560Z,1.80
2022-10-19T21:04:23.217Z,1.50
2022-10-19T21:06:50.681Z,1.00
2022-10-19T21:09:19.175Z,0.90
2022-10-19T21:11:46.151Z,0.80
2022-10-19T21:14:17.644Z,0.80
2022-10-19T21:16:44.446Z,0.60
2022-10-19T21:19:13.549Z,0.70
2022-10-19T21:21:44.682Z,0.70
2022-10-19T21:24:14.359Z,1.10
2022-10-19T21:26:41.280Z,0.90
2022-10-19T21:29:09.669Z,0.80
2022-10-19T21:31:37.433Z,0.90
2022-10-19T21:34:08.209Z,0.80
2022-10-19T21:36:34.936Z,0.80
2022-10-19T21:39:01.939Z,0.80
2022-10-19T21:41:28.734Z,0.80
2022-10-19T21:43:55.418Z,0.80
2022-10-19T21:46:22.853Z,0.80
2022-10-19T21:48:50.051Z,0.80
2022-10-19T21:51:16.798Z,0.80
2022-10-19T21:53:44.091Z,0.90
2022-10-19T21:56:10.870Z,0.80
2022-10-19T21:58:37.549Z,0.80
2022-10-19T22:01:08.451Z,0.70
2022-10-19T22:03:35.224Z,0.70
2022-10-19T22:06:02.018Z,0.70
2022-10-19T22:08:28.997Z,0.80
2022-10-19T22:10:56.076Z,0.70
2022-10-19T22:13:22.724Z,0.70
2022-10-19T22:15:49.416Z,0.70
2022-10-19T22:18:16.155Z,0.70
2022-10-19T22:20:42.851Z,0.70
2022-10-19T22:23:09.650Z,0.80
2022-10-19T22:25:36.600Z,0.70
2022-10-19T22:28:03.538Z,0.70
2022-10-19T22:30:30.280Z,0.70
2022-10-19T22:32:56.990Z,0.70
2022-10-19T22:38:25.231Z,0.70
2022-10-19T22:40:51.863Z,0.60
2022-10-19T22:43:18.545Z,0.50
2022-10-19T22:45:48.840Z,0.70
2022-10-19T22:48:16.434Z,0.60
2022-10-19T22:50:43.352Z,0.60
2022-10-19T22:53:10.150Z,0.60
2022-10-19T22:55:36.952Z,0.60
2022-10-19T22:58:04.650Z,0.70
2022-10-19T23:00:31.338Z,0.70
2022-10-19T23:02:58.056Z,0.80
2022-10-19T23:05:24.671Z,0.80
2022-10-19T23:07:51.377Z,0.80
2022-10-19T23:10:18.099Z,0.80
2022-10-19T23:12:49.073Z,0.70
2022-10-19T23:15:15.805Z,0.80
2022-10-19T23:17:42.438Z,0.90
2022-10-19T23:20:09.777Z,0.70
2022-10-19T23:22:36.441Z,0.80
2022-10-19T23:25:03.148Z,0.90
2022-10-19T23:27:29.812Z,0.80
2022-10-19T23:29:56.591Z,0.90
2022-10-19T23:32:23.237Z,0.80
2022-10-19T23:34:49.982Z,0.80
2022-10-19T23:37:16.654Z,0.80
2022-10-19T23:39:43.352Z,0.80
2022-10-19T23:42:10.004Z,0.90
2022-10-19T23:44:36.647Z,0.80
2022-10-19T23:47:03.296Z,0.80
2022-10-19T23:49:29.939Z,0.90
2022-10-19T23:51:56.616Z,0.80
2022-10-19T23:54:23.361Z,1.00
2022-10-19T23:56:50.005Z,0.90
2022-10-19T23:59:16.723Z,1.00
